Time,TemperatureF,DewpointF,PressureIn,WindDirection,WindDirectionDegrees,WindSpeedMPH,WindSpeedGustMPH,Humidity,HourlyPrecipIn,Conditions,Clouds,dailyrainin,SolarRadiationWatts/m^2,SoftwareType,DateUTC
2013-01-20 00:04:00,31.0,28.0,-100.00,ENE,70,4.0,7.0,90,0.00,,,0.01,0.000000,,2013-01-20 05:04:00,
2013-01-20 00:33:00,30.0,28.0,-100.00,East,79,4.0,7.0,91,0.00,,,0.01,0.000000,,2013-01-20 05:33:00,
2013-01-20 00:43:00,30.0,28.0,-100.00,East,79,4.0,7.0,91,0.00,,,0.01,0.000000,,2013-01-20 05:43:00,
2013-01-20 00:53:00,30.0,28.0,-100.00,East,79,4.0,7.0,91,0.00,,,0.01,0.000000,,2013-01-20 05:53:00,
2013-01-20 01:02:00,30.0,28.0,-100.00,East,79,4.0,7.0,91,0.00,,,0.01,0.000000,,2013-01-20 06:02:00,
2013-01-20 01:33:00,29.0,27.0,-100.00,East,82,4.0,8.0,92,0.00,,,0.01,0.000000,,2013-01-20 06:33:00,
2013-01-20 01:43:00,29.0,27.0,-100.00,East,82,4.0,8.0,92,0.00,,,0.01,0.000000,,2013-01-20 06:43:00,
2013-01-20 01:53:00,29.0,27.0,-100.00,East,82,4.0,8.0,92,0.00,,,0.01,0.000000,,2013-01-20 06:53:00,
2013-01-20 02:02:00,29.0,27.0,-100.00,East,82,4.0,8.0,92,0.00,,,0.01,0.000000,,2013-01-20 07:02:00,
2013-01-20 02:32:00,28.0,27.0,-100.00,ESE,108,2.0,7.0,94,0.00,,,0.01,0.000000,,2013-01-20 07:32:00,
2013-01-20 02:42:00,28.0,27.0,-100.00,ESE,108,2.0,7.0,94,0.00,,,0.01,0.000000,,2013-01-20 07:42:00,
2013-01-20 02:52:00,28.0,27.0,-100.00,ESE,108,2.0,7.0,94,0.00,,,0.01,0.000000,,2013-01-20 07:52:00,
2013-01-20 03:02:00,28.0,27.0,-100.00,ESE,108,2.0,7.0,94,0.00,,,0.01,0.000000,,2013-01-20 08:02:00,
2013-01-20 03:32:00,28.0,27.0,-100.00,ESE,115,1.0,6.0,96,0.00,,,0.01,0.000000,,2013-01-20 08:32:00,
2013-01-20 03:42:00,28.0,27.0,-100.00,ESE,115,1.0,6.0,96,0.00,,,0.01,0.000000,,2013-01-20 08:42:00,
2013-01-20 03:53:00,28.0,27.0,-100.00,ESE,115,1.0,6.0,96,0.00,,,0.01,0.000000,,2013-01-20 08:53:00,
2013-01-20 04:02:00,28.0,27.0,-100.00,ESE,115,1.0,6.0,96,0.00,,,0.01,0.000000,,2013-01-20 09:02:00,
2013-01-20 04:33:00,28.0,27.0,-100.00,East,89,2.0,5.0,97,0.00,,,0.01,0.000000,,2013-01-20 09:33:00,
2013-01-20 04:42:00,28.0,27.0,-100.00,East,89,2.0,5.0,97,0.00,,,0.01,0.000000,,2013-01-20 09:42:00,
2013-01-20 04:53:00,28.0,27.0,-100.00,East,89,2.0,5.0,97,0.00,,,0.01,0.000000,,2013-01-20 09:53:00,
2013-01-20 05:02:00,28.0,27.0,-100.00,East,89,2.0,5.0,97,0.00,,,0.01,0.000000,,2013-01-20 10:02:00,
2013-01-20 05:33:00,27.0,26.0,-100.00,East,90,2.0,6.0,96,0.00,,,0.01,0.000000,,2013-01-20 10:33:00,
2013-01-20 05:42:00,27.0,26.0,-100.00,East,90,2.0,6.0,96,0.00,,,0.01,0.000000,,2013-01-20 10:42:00,
2013-01-20 05:53:00,27.0,26.0,-100.00,East,90,2.0,6.0,96,0.00,,,0.01,0.000000,,2013-01-20 10:53:00,
2013-01-20 06:03:00,27.0,26.0,-100.00,East,90,2.0,6.0,96,0.00,,,0.01,0.000000,,2013-01-20 11:03:00,
2013-01-20 06:33:00,27.0,26.0,-100.00,East,101,2.0,6.0,96,0.00,,,0.01,0.000000,,2013-01-20 11:33:00,
2013-01-20 06:43:00,27.0,26.0,-100.00,East,101,2.0,6.0,96,0.00,,,0.01,0.000000,,2013-01-20 11:43:00,
2013-01-20 06:54:00,27.0,26.0,-100.00,East,101,2.0,6.0,96,0.00,,,0.01,0.000000,,2013-01-20 11:54:00,
2013-01-20 07:03:00,27.0,26.0,-100.00,East,101,2.0,6.0,96,0.00,,,0.01,0.000000,,2013-01-20 12:03:00,
2013-01-20 07:33:00,26.0,25.0,-100.00,East,93,2.0,6.0,96,0.00,,,0.01,0.000000,,2013-01-20 12:33:00,
2013-01-20 07:43:00,26.0,25.0,-100.00,East,93,2.0,6.0,96,0.00,,,0.01,0.000000,,2013-01-20 12:43:00,
2013-01-20 07:53:00,26.0,25.0,-100.00,East,93,2.0,6.0,96,0.00,,,0.01,0.000000,,2013-01-20 12:53:00,
2013-01-20 08:03:00,26.0,25.0,-100.00,East,93,2.0,6.0,96,0.00,,,0.01,0.000000,,2013-01-20 13:03:00,
2013-01-20 08:33:00,26.0,25.0,-100.00,ESE,107,2.0,6.0,96,0.00,,,0.01,4.000000,,2013-01-20 13:33:00,
2013-01-20 08:43:00,26.0,25.0,-100.00,ESE,107,2.0,6.0,96,0.00,,,0.01,4.000000,,2013-01-20 13:43:00,
2013-01-20 08:53:00,26.0,25.0,-100.00,ESE,107,2.0,6.0,96,0.00,,,0.01,4.000000,,2013-01-20 13:53:00,
2013-01-20 09:03:00,26.0,25.0,-100.00,ESE,107,2.0,6.0,96,0.00,,,0.01,4.000000,,2013-01-20 14:03:00,
2013-01-20 09:33:00,29.0,28.0,-100.00,ESE,112,1.0,6.0,95,0.00,,,0.01,50.000000,,2013-01-20 14:33:00,
2013-01-20 09:43:00,29.0,28.0,-100.00,ESE,112,1.0,6.0,95,0.00,,,0.01,50.000000,,2013-01-20 14:43:00,
2013-01-20 09:53:00,29.0,28.0,-100.00,ESE,112,1.0,6.0,95,0.00,,,0.01,50.000000,,2013-01-20 14:53:00,
2013-01-20 10:03:00,29.0,28.0,-100.00,ESE,112,1.0,6.0,95,0.00,,,0.01,50.000000,,2013-01-20 15:03:00,
2013-01-20 10:33:00,39.0,35.0,-100.00,East,97,1.0,3.0,87,0.00,,,0.00,312.000000,,2013-01-20 15:33:00,
2013-01-20 10:43:00,39.0,35.0,-100.00,East,97,1.0,3.0,87,0.00,,,0.00,312.000000,,2013-01-20 15:43:00,
2013-01-20 10:53:00,39.0,35.0,-100.00,East,97,1.0,3.0,87,0.00,,,0.00,312.000000,,2013-01-20 15:53:00,
2013-01-20 11:03:00,39.0,35.0,-100.00,East,97,1.0,3.0,87,0.00,,,0.00,312.000000,,2013-01-20 16:03:00,
2013-01-20 11:33:00,52.0,38.0,-100.00,WSW,244,3.0,5.0,58,0.00,,,0.00,529.000000,,2013-01-20 16:33:00,
2013-01-20 11:43:00,52.0,38.0,-100.00,WSW,244,3.0,5.0,58,0.00,,,0.00,529.000000,,2013-01-20 16:43:00,
2013-01-20 11:53:00,52.0,38.0,-100.00,WSW,244,3.0,5.0,58,0.00,,,0.00,529.000000,,2013-01-20 16:53:00,
2013-01-20 12:03:00,52.0,38.0,-100.00,WSW,244,3.0,5.0,58,0.00,,,0.00,529.000000,,2013-01-20 17:03:00,
2013-01-20 12:33:00,56.0,34.0,-100.00,WNW,291,3.0,6.0,43,0.00,,,0.00,647.000000,,2013-01-20 17:33:00,
2013-01-20 12:43:00,56.0,34.0,-100.00,WNW,291,3.0,6.0,43,0.00,,,0.00,647.000000,,2013-01-20 17:43:00,
2013-01-20 12:53:00,56.0,34.0,-100.00,WNW,291,3.0,6.0,43,0.00,,,0.00,647.000000,,2013-01-20 17:53:00,
2013-01-20 13:03:00,56.0,34.0,-100.00,WNW,291,3.0,6.0,43,0.00,,,0.00,647.000000,,2013-01-20 18:03:00,
2013-01-20 13:33:00,56.0,31.0,-100.00,WNW,298,5.0,10.0,39,0.00,,,0.00,701.000000,,2013-01-20 18:33:00,
2013-01-20 13:43:00,56.0,31.0,-100.00,WNW,298,5.0,10.0,39,0.00,,,0.00,701.000000,,2013-01-20 18:43:00,
2013-01-20 13:53:00,56.0,31.0,-100.00,WNW,298,5.0,10.0,39,0.00,,,0.00,701.000000,,2013-01-20 18:53:00,
2013-01-20 14:03:00,56.0,31.0,-100.00,WNW,298,5.0,10.0,39,0.00,,,0.00,701.000000,,2013-01-20 19:03:00,
2013-01-20 14:33:00,58.0,31.0,-100.00,NW,309,6.0,11.0,36,0.00,,,0.00,688.000000,,2013-01-20 19:33:00,
2013-01-20 14:43:00,58.0,31.0,-100.00,NW,309,6.0,11.0,36,0.00,,,0.00,688.000000,,2013-01-20 19:43:00,
2013-01-20 14:53:00,58.0,31.0,-100.00,NW,309,6.0,11.0,36,0.00,,,0.00,688.000000,,2013-01-20 19:53:00,
2013-01-20 15:03:00,58.0,31.0,-100.00,NW,309,6.0,11.0,36,0.00,,,0.00,688.000000,,2013-01-20 20:03:00,
2013-01-20 15:33:00,61.0,29.0,-100.00,WSW,237,3.0,10.0,29,0.00,,,0.00,604.000000,,2013-01-20 20:33:00,
2013-01-20 15:42:00,61.0,29.0,-100.00,WSW,237,3.0,10.0,29,0.00,,,0.00,604.000000,,2013-01-20 20:42:00,
2013-01-20 15:54:00,61.0,29.0,-100.00,WSW,237,3.0,10.0,29,0.00,,,0.00,604.000000,,2013-01-20 20:54:00,
2013-01-20 16:04:00,61.0,29.0,-100.00,WSW,237,3.0,10.0,29,0.00,,,0.00,604.000000,,2013-01-20 21:04:00,
2013-01-20 16:33:00,57.0,29.0,-100.00,WNW,285,5.0,12.0,34,0.00,,,0.00,453.000000,,2013-01-20 21:33:00,
2013-01-20 16:43:00,57.0,29.0,-100.00,WNW,285,5.0,12.0,34,0.00,,,0.00,453.000000,,2013-01-20 21:43:00,
2013-01-20 16:53:00,57.0,29.0,-100.00,WNW,285,5.0,12.0,34,0.00,,,0.00,453.000000,,2013-01-20 21:53:00,
2013-01-20 17:03:00,57.0,29.0,-100.00,WNW,285,5.0,12.0,34,0.00,,,0.00,453.000000,,2013-01-20 22:03:00,
2013-01-20 17:33:00,52.0,27.0,-100.00,NNE,28,4.0,11.0,38,0.00,,,0.00,226.000000,,2013-01-20 22:33:00,
2013-01-20 17:43:00,52.0,27.0,-100.00,NNE,28,4.0,11.0,38,0.00,,,0.00,226.000000,,2013-01-20 22:43:00,
2013-01-20 17:53:00,52.0,27.0,-100.00,NNE,28,4.0,11.0,38,0.00,,,0.00,226.000000,,2013-01-20 22:53:00,
2013-01-20 18:03:00,52.0,27.0,-100.00,NNE,28,4.0,11.0,38,0.00,,,0.00,226.000000,,2013-01-20 23:03:00,
2013-01-20 18:33:00,47.0,29.0,-100.00,WNW,302,4.0,10.0,49,0.00,,,0.00,43.000000,,2013-01-20 23:33:00,
2013-01-20 18:43:00,47.0,29.0,-100.00,WNW,302,4.0,10.0,49,0.00,,,0.00,43.000000,,2013-01-20 23:43:00,
2013-01-20 18:53:00,47.0,29.0,-100.00,WNW,302,4.0,10.0,49,0.00,,,0.00,43.000000,,2013-01-20 23:53:00,
2013-01-20 19:03:00,47.0,29.0,-100.00,WNW,302,4.0,10.0,49,0.00,,,0.00,43.000000,,2013-01-21 00:03:00,
2013-01-20 19:33:00,43.0,30.0,-100.00,South,182,2.0,5.0,59,0.00,,,0.00,0.000000,,2013-01-21 00:33:00,
2013-01-20 19:43:00,43.0,30.0,-100.00,South,182,2.0,5.0,59,0.00,,,0.00,0.000000,,2013-01-21 00:43:00,
2013-01-20 19:54:00,43.0,30.0,-100.00,South,182,2.0,5.0,59,0.00,,,0.00,0.000000,,2013-01-21 00:54:00,
2013-01-20 20:03:00,43.0,30.0,-100.00,South,182,2.0,5.0,59,0.00,,,0.00,0.000000,,2013-01-21 01:03:00,
2013-01-20 20:33:00,38.0,31.0,-100.00,East,97,2.0,5.0,77,0.00,,,0.00,0.000000,,2013-01-21 01:33:00,
2013-01-20 20:43:00,38.0,31.0,-100.00,East,97,2.0,5.0,77,0.00,,,0.00,0.000000,,2013-01-21 01:43:00,
2013-01-20 20:53:00,38.0,31.0,-100.00,East,97,2.0,5.0,77,0.00,,,0.00,0.000000,,2013-01-21 01:53:00,
2013-01-20 21:03:00,38.0,31.0,-100.00,East,97,2.0,5.0,77,0.00,,,0.00,0.000000,,2013-01-21 02:03:00,
2013-01-20 21:33:00,35.0,31.0,-100.00,ESE,122,1.0,4.0,85,0.00,,,0.00,0.000000,,2013-01-21 02:33:00,
2013-01-20 21:43:00,35.0,31.0,-100.00,ESE,122,1.0,4.0,85,0.00,,,0.00,0.000000,,2013-01-21 02:43:00,
2013-01-20 21:53:00,35.0,31.0,-100.00,ESE,122,1.0,4.0,85,0.00,,,0.00,0.000000,,2013-01-21 02:53:00,
2013-01-20 22:03:00,35.0,31.0,-100.00,ESE,122,1.0,4.0,85,0.00,,,0.00,0.000000,,2013-01-21 03:03:00,
2013-01-20 22:33:00,33.0,31.0,-100.00,East,91,2.0,4.0,91,0.00,,,0.00,0.000000,,2013-01-21 03:33:00,
2013-01-20 22:43:00,33.0,31.0,-100.00,East,91,2.0,4.0,91,0.00,,,0.00,0.000000,,2013-01-21 03:43:00,
2013-01-20 22:54:00,33.0,31.0,-100.00,East,91,2.0,4.0,91,0.00,,,0.00,0.000000,,2013-01-21 03:54:00,
2013-01-20 23:03:00,33.0,31.0,-100.00,East,91,2.0,4.0,91,0.00,,,0.00,0.000000,,2013-01-21 04:03:00,
2013-01-20 23:33:00,31.0,30.0,-100.00,ENE,75,3.0,4.0,95,0.00,,,0.00,0.000000,,2013-01-21 04:33:00,
2013-01-20 23:43:00,31.0,30.0,-100.00,ENE,75,3.0,4.0,95,0.00,,,0.00,0.000000,,2013-01-21 04:43:00,
2013-01-20 23:53:00,31.0,30.0,-100.00,ENE,75,3.0,4.0,95,0.00,,,0.00,0.000000,,2013-01-21 04:53:00,